Hillsboro Beach, Florida
Current Conditions -  °F | °C
As of 8:53 PM on Friday 28 Nov 2014 (Local Time) from KPMP Reporting Station
Few Clouds Few Clouds  
Wind Chill: 60°   Ceiling: Unl
Heat Index: 60°   Visibility: 10mi
Dew Point: 50°   Wind: 10mph
Humidity: 69%   Direction: 330°NNW
Pressure: 30.2"   Gusts: NA
Location:  26.2377°N, 80.0981°W
Report Text: KPMP 290153Z 33009KT 10SM FEW046 16/10 A3020 RMK AO2 SLP227 T01560100
Loading
Personal Weather Stations






























Interactive Weather Map New forecast layout! Learn more

10-Day Weather Forecast

Advertisements
Track Severe Weather on mobile